Calgary, Alberta

03:29 PM MST on Februari 21, 2019 (GMT -0700)
Harvest Hills | | Change Station

Elev 3517 ft 51.15 °N, 114.05 °W | Updated 20 seconds ago

Partly Cloudy
Växlande molnighet
17.2 °F
Feels Like 6 °F
N
8.9
Vind Växlande Vind from Sydlig
Gusts 0.0 miles/tim

Idag
High -- | Low -- °F
--% Chance of Precip.
Yesterday
High -- | Low -- °F
Precip. -- tum
Lufttryck 30.19 tum
Sikt 40.0 miles
Molnigt Few 3000 ft
Vindavkylning 6 °F
Daggpunkt 6 °F
Luftfuktighet 61%
Rainfall 0.00 tum
Snow Depth Not available.
7:37 AM 6:02 PM
Tredje kvarteret, 92% visible
METAR CYYC 212200Z 19009KT 40SM FEW030 M09/M17 A2994 RMK CU1 CU TR SLP222
Lufttryck 30.19 tum
Sikt 40.0 miles
Molnigt Few 3000 ft
Vindavkylning 6 °F
Daggpunkt 6 °F
Luftfuktighet 61%
Rainfall 0.00 tum
Snow Depth Not available.
7:37 AM 6:02 PM
Tredje kvarteret, 92% visible
METAR CYYC 212200Z 19009KT 40SM FEW030 M09/M17 A2994 RMK CU1 CU TR SLP222

Get Severe Weather Alerts

Thanks for signing up!

Be on the lookout for a verification email in your inbox.

You'll start receiving the daily forecast at 6 AM.

×

10-Day Weather Forecast

Almanac

Astronomi

Feb. 21, 2019 Rise Set
Actual Time
Civil Twilight
Nautical Twilight
Astronomical Twilight
Månen
Length Of Visible Light
Dagens längd
Tomorrow will be .
, % of the Moon is Illuminated

Today's Extremes

Country Highs Country Lows

Community

WunderPhotos

Category 6

Welcome to Category 6. This is the collective home for Weather Underground's featured writeups by Dr. Jeff Masters (right), Bob Henson (left), Chris Burt, and other regular contributors.

Nearby

Air Quality

  Air Quality AQ Index Pollutant
Not available.

Snödjup

Station Depth Elevation

Earthquake Activity

Stad Distance Mag. Time & Date
Minimum magnitude displayed is 2.5.

Coastal Water Temperatures

Plats Temperatur

Stations

Nearby Weather Stations

Station Location Temp Vindavkylning Daggpunkt Luftfuktighet Vind Precip. Elev Uppdaterad Type
                   

Watches & Warnings

There are currently no watches in effect.